createdAt,value
2023-05-25T00:01:01.323Z,3.65
2023-05-25T00:03:32.667Z,3.65
2023-05-25T00:06:02.024Z,3.95
2023-05-25T00:08:30.332Z,3.22
2023-05-25T00:10:58.397Z,3.47
2023-05-25T00:13:26.679Z,3.97
2023-05-25T00:15:54.830Z,3.63
2023-05-25T00:18:22.936Z,4.10
2023-05-25T00:20:54.174Z,4.10
2023-05-25T00:23:22.245Z,3.80
2023-05-25T00:25:50.422Z,4.03
2023-05-25T00:28:18.381Z,4.03
2023-05-25T00:30:46.389Z,3.50
2023-05-25T00:33:14.471Z,3.83
2023-05-25T00:35:43.548Z,3.70
2023-05-25T00:38:15.398Z,3.30
2023-05-25T00:40:43.353Z,3.80
2023-05-25T00:43:12.115Z,4.05
2023-05-25T00:45:40.677Z,3.65
2023-05-25T00:48:11.085Z,3.67
2023-05-25T00:50:40.781Z,3.55
2023-05-25T00:53:10.057Z,3.55
2023-05-25T00:55:42.963Z,3.55
2023-05-25T00:58:12.464Z,3.22
2023-05-25T01:00:43.715Z,3.53
2023-05-25T01:03:18.014Z,3.45
2023-05-25T01:05:50.117Z,4.07
2023-05-25T01:08:21.203Z,3.63
2023-05-25T01:10:53.973Z,4.18
2023-05-25T01:13:22.672Z,4.10
2023-05-25T01:15:52.351Z,3.25
2023-05-25T01:18:20.266Z,3.95
2023-05-25T01:20:58.531Z,3.40
2023-05-25T01:23:34.101Z,4.05
2023-05-25T01:26:06.537Z,3.65
2023-05-25T01:28:41.109Z,3.83
2023-05-25T01:31:10.549Z,3.78
2023-05-25T01:33:39.587Z,3.67
2023-05-25T01:36:08.977Z,4.07
2023-05-25T01:38:38.163Z,3.83
2023-05-25T01:41:06.108Z,4.03
2023-05-25T01:43:34.002Z,4.03
2023-05-25T01:46:13.171Z,4.72
2023-05-25T01:48:48.796Z,3.78
2023-05-25T01:51:26.858Z,4.80
2023-05-25T01:53:59.412Z,3.38
2023-05-25T01:56:31.961Z,4.00
2023-05-25T01:59:02.553Z,3.87
2023-05-25T02:01:33.338Z,3.75
2023-05-25T02:04:02.107Z,3.90
2023-05-25T02:06:31.926Z,3.90
2023-05-25T02:09:07.007Z,4.20
2023-05-25T02:11:34.967Z,3.92
2023-05-25T02:14:02.898Z,3.90
2023-05-25T02:16:31.030Z,3.45
2023-05-25T02:19:01.218Z,4.05
2023-05-25T02:21:29.230Z,3.90
2023-05-25T02:23:59.077Z,4.32
2023-05-25T02:26:27.357Z,3.95
2023-05-25T02:28:55.310Z,17.58
2023-05-25T02:31:23.215Z,6.57
2023-05-25T02:33:51.144Z,4.55
2023-05-25T02:36:21.170Z,4.25
2023-05-25T02:38:49.948Z,4.18
2023-05-25T02:41:21.450Z,3.92
2023-05-25T02:43:49.376Z,3.97
2023-05-25T02:46:17.349Z,4.57
2023-05-25T02:48:45.431Z,4.75
2023-05-25T02:51:13.446Z,4.70
2023-05-25T02:53:41.725Z,4.28
2023-05-25T02:56:11.275Z,4.85
2023-05-25T02:58:40.860Z,3.85
2023-05-25T03:01:18.625Z,5.43
2023-05-25T03:03:53.099Z,4.35
2023-05-25T03:06:26.037Z,4.32
2023-05-25T03:08:58.507Z,4.30
2023-05-25T03:11:26.874Z,4.72
2023-05-25T03:13:58.815Z,5.20
2023-05-25T03:16:28.727Z,4.70
2023-05-25T03:18:56.672Z,4.38
2023-05-25T03:21:24.606Z,4.57
2023-05-25T03:23:52.510Z,5.18
2023-05-25T03:26:20.386Z,4.72
2023-05-25T03:28:50.848Z,4.60
2023-05-25T03:31:20.220Z,4.97
2023-05-25T03:33:48.541Z,5.03
2023-05-25T03:36:17.893Z,4.57
2023-05-25T03:38:46.309Z,4.72
2023-05-25T03:41:14.231Z,5.18
2023-05-25T03:43:42.084Z,5.00
2023-05-25T03:46:11.660Z,5.25
2023-05-25T03:48:41.281Z,4.75
2023-05-25T03:51:09.659Z,5.07
2023-05-25T03:53:37.661Z,5.40
2023-05-25T03:56:06.064Z,5.70
2023-05-25T03:58:34.208Z,5.07
2023-05-25T04:01:04.366Z,5.65
2023-05-25T04:03:33.748Z,4.78
2023-05-25T04:06:03.323Z,6.63
2023-05-25T04:08:31.201Z,5.05
2023-05-25T04:10:59.188Z,5.65
2023-05-25T04:13:29.445Z,5.53
2023-05-25T04:15:57.449Z,5.97
2023-05-25T04:18:30.562Z,6.20
2023-05-25T04:21:01.283Z,5.65
2023-05-25T04:23:31.196Z,6.13
2023-05-25T04:25:59.934Z,5.95
2023-05-25T04:28:28.325Z,5.85
2023-05-25T04:31:14.032Z,6.90
2023-05-25T04:33:50.860Z,5.63
2023-05-25T04:36:26.779Z,6.07
2023-05-25T04:38:56.485Z,5.65
2023-05-25T04:41:26.207Z,5.53
2023-05-25T04:44:09.035Z,6.03
2023-05-25T04:46:40.834Z,5.85
2023-05-25T04:49:16.817Z,6.93
2023-05-25T04:51:44.774Z,6.38
2023-05-25T04:54:14.053Z,6.78
2023-05-25T04:56:41.967Z,6.00
2023-05-25T04:59:11.054Z,5.85
2023-05-25T05:01:41.106Z,6.60
2023-05-25T05:04:11.486Z,6.68
2023-05-25T05:06:40.777Z,7.65
2023-05-25T05:09:10.050Z,6.82
2023-05-25T05:11:39.371Z,6.88
2023-05-25T05:14:08.180Z,6.53
2023-05-25T05:16:37.467Z,6.65
2023-05-25T05:19:05.735Z,7.53
2023-05-25T05:21:33.690Z,7.65
2023-05-25T05:24:04.795Z,7.35
2023-05-25T05:26:41.265Z,7.22
2023-05-25T05:29:19.898Z,7.78
2023-05-25T05:31:48.331Z,7.70
2023-05-25T05:34:16.718Z,8.77
2023-05-25T05:36:56.531Z,7.78
2023-05-25T05:39:25.357Z,8.23
2023-05-25T05:41:53.248Z,7.90
2023-05-25T05:44:25.996Z,8.10
2023-05-25T05:46:59.992Z,9.02
2023-05-25T05:49:29.178Z,6.80
2023-05-25T05:51:57.568Z,6.93
2023-05-25T05:54:27.771Z,6.10
2023-05-25T05:56:56.176Z,7.50
2023-05-25T05:59:25.536Z,6.13
2023-05-25T06:01:53.665Z,6.78
2023-05-25T06:04:25.287Z,6.28
2023-05-25T06:06:53.277Z,6.57
2023-05-25T06:09:21.373Z,6.78
2023-05-25T06:11:49.289Z,7.50
2023-05-25T06:14:18.445Z,7.20
2023-05-25T06:16:47.773Z,6.68
2023-05-25T06:19:15.779Z,6.63
2023-05-25T06:21:43.660Z,6.68
2023-05-25T06:24:11.542Z,6.97
2023-05-25T06:26:39.568Z,7.25
2023-05-25T06:29:07.576Z,7.05
2023-05-25T06:31:36.440Z,7.43
2023-05-25T06:34:05.865Z,7.55
2023-05-25T06:36:33.758Z,6.40
2023-05-25T06:39:01.670Z,6.13
2023-05-25T06:41:30.772Z,6.75
2023-05-25T06:43:58.763Z,6.35
2023-05-25T06:46:33.030Z,6.63
2023-05-25T06:49:01.201Z,6.70
2023-05-25T06:51:31.206Z,6.63
2023-05-25T06:53:59.465Z,7.05
2023-05-25T06:56:27.972Z,6.38
2023-05-25T06:58:55.925Z,6.13
2023-05-25T07:01:23.884Z,6.28
2023-05-25T07:03:51.806Z,7.35
2023-05-25T07:06:19.675Z,6.03
2023-05-25T07:08:48.915Z,6.93
2023-05-25T07:11:20.637Z,6.20
2023-05-25T07:13:48.526Z,5.57
2023-05-25T07:16:16.626Z,7.25
2023-05-25T07:18:44.569Z,6.38
2023-05-25T07:21:12.463Z,6.57
2023-05-25T07:23:41.112Z,4.97
2023-05-25T07:26:10.637Z,6.63
2023-05-25T07:28:38.524Z,5.70
2023-05-25T07:31:06.485Z,5.60
2023-05-25T07:33:34.391Z,4.32
2023-05-25T07:36:02.248Z,4.45
2023-05-25T07:38:30.117Z,4.10
2023-05-25T07:40:58.020Z,3.60
2023-05-25T07:43:29.644Z,4.93
2023-05-25T07:45:57.728Z,4.28
2023-05-25T07:48:25.674Z,3.80
2023-05-25T07:50:53.619Z,3.95
2023-05-25T07:53:21.571Z,3.90
2023-05-25T07:55:49.548Z,4.38
2023-05-25T07:58:17.651Z,4.85
2023-05-25T08:00:46.884Z,4.20
2023-05-25T08:03:14.881Z,5.47
2023-05-25T08:05:44.251Z,4.60
2023-05-25T08:08:12.462Z,4.50
2023-05-25T08:10:40.563Z,4.25
2023-05-25T08:13:08.544Z,5.10
2023-05-25T08:15:36.497Z,4.60
2023-05-25T08:18:06.661Z,3.90
2023-05-25T08:20:34.940Z,3.22
2023-05-25T08:23:02.883Z,4.03
2023-05-25T08:25:30.764Z,3.85
2023-05-25T08:27:58.656Z,3.75
2023-05-25T08:30:26.556Z,4.55
2023-05-25T08:32:54.609Z,4.68
2023-05-25T08:35:23.925Z,4.00
2023-05-25T08:37:52.090Z,3.72
2023-05-25T08:40:23.718Z,3.83
2023-05-25T08:42:51.892Z,3.95
2023-05-25T08:45:33.696Z,4.18
2023-05-25T08:50:35.323Z,3.85
2023-05-25T08:53:06.357Z,3.25
2023-05-25T08:55:38.757Z,3.92
2023-05-25T08:58:14.863Z,4.00
2023-05-25T09:00:50.377Z,4.07
2023-05-25T09:03:19.023Z,3.67
2023-05-25T09:05:48.678Z,3.45
2023-05-25T09:08:18.008Z,4.28
2023-05-25T09:10:46.019Z,3.95
2023-05-25T09:13:22.115Z,3.17
2023-05-25T09:15:52.098Z,3.65
2023-05-25T09:18:20.373Z,4.63
2023-05-25T09:20:50.038Z,3.47
2023-05-25T09:23:18.450Z,3.67
2023-05-25T09:25:47.541Z,3.10
2023-05-25T09:30:46.473Z,4.07
2023-05-25T09:33:17.589Z,3.83
2023-05-25T09:35:45.901Z,4.45
2023-05-25T09:38:16.582Z,3.78
2023-05-25T09:40:45.349Z,4.38
2023-05-25T09:43:21.947Z,4.18
2023-05-25T09:45:53.636Z,5.90
2023-05-25T09:48:23.080Z,4.80
2023-05-25T09:50:52.209Z,4.45
2023-05-25T09:53:21.793Z,4.20
2023-05-25T09:55:53.297Z,4.25
2023-05-25T09:58:24.770Z,4.78
2023-05-25T10:00:55.767Z,4.10
2023-05-25T10:03:23.854Z,3.88
2023-05-25T10:05:53.409Z,3.75
2023-05-25T10:08:27.879Z,3.30
2023-05-25T10:10:56.894Z,3.88
2023-05-25T10:13:28.214Z,3.50
2023-05-25T10:15:57.357Z,3.53
2023-05-25T10:18:29.151Z,4.05
2023-05-25T10:21:04.394Z,3.42
2023-05-25T10:23:40.247Z,3.60
2023-05-25T10:26:09.468Z,3.15
2023-05-25T10:28:40.629Z,3.25
2023-05-25T10:31:10.586Z,3.50
2023-05-25T10:33:38.824Z,3.97
2023-05-25T10:36:11.305Z,3.95
2023-05-25T10:38:44.620Z,3.45
2023-05-25T10:41:12.905Z,4.70
2023-05-25T10:43:41.695Z,4.40
2023-05-25T10:46:09.768Z,3.38
2023-05-25T10:48:38.619Z,3.60
2023-05-25T10:51:08.335Z,4.05
2023-05-25T10:53:38.047Z,3.80
2023-05-25T10:56:10.602Z,4.40
2023-05-25T10:58:42.942Z,4.57
2023-05-25T11:01:12.291Z,4.22
2023-05-25T11:03:55.701Z,4.30
2023-05-25T11:06:25.271Z,3.92
2023-05-25T11:08:55.958Z,3.95
2023-05-25T11:12:04.044Z,3.75
2023-05-25T11:14:33.951Z,4.25
2023-05-25T11:17:10.682Z,3.90
2023-05-25T11:19:47.953Z,4.43
2023-05-25T11:22:20.621Z,4.07
2023-05-25T11:24:49.231Z,4.22
2023-05-25T11:27:23.646Z,4.50
2023-05-25T11:29:52.304Z,4.35
2023-05-25T11:32:21.205Z,4.03
2023-05-25T11:34:49.732Z,4.35
2023-05-25T11:37:21.218Z,4.07
2023-05-25T11:39:49.725Z,3.95
2023-05-25T11:42:20.998Z,3.58
2023-05-25T11:44:49.153Z,3.33
2023-05-25T11:47:22.687Z,7.07
2023-05-25T11:49:50.730Z,3.72
2023-05-25T11:52:20.450Z,4.40
2023-05-25T11:54:48.563Z,3.58
2023-05-25T11:57:19.166Z,3.78
2023-05-25T11:59:51.073Z,4.75
2023-05-25T12:02:19.517Z,4.57
2023-05-25T12:04:55.164Z,4.57
2023-05-25T12:07:23.675Z,3.83
2023-05-25T12:09:51.810Z,4.05
2023-05-25T12:12:21.309Z,3.97
2023-05-25T12:14:50.026Z,5.20
2023-05-25T12:17:19.592Z,4.68
2023-05-25T12:19:47.865Z,5.03
2023-05-25T12:22:16.407Z,4.50
2023-05-25T12:24:44.506Z,5.30
2023-05-25T12:27:19.176Z,4.38
2023-05-25T12:29:48.830Z,5.22
2023-05-25T12:32:17.194Z,5.18
2023-05-25T12:34:45.290Z,4.93
2023-05-25T12:37:20.716Z,4.78
2023-05-25T12:39:50.631Z,5.85
2023-05-25T12:42:19.392Z,5.13
2023-05-25T12:44:48.784Z,5.18
2023-05-25T12:47:20.146Z,5.50
2023-05-25T12:49:51.340Z,5.13
2023-05-25T12:52:36.669Z,4.30
2023-05-25T12:55:21.276Z,5.10
2023-05-25T12:57:52.441Z,4.97
2023-05-25T13:00:23.737Z,4.30
2023-05-25T13:02:52.486Z,4.88
2023-05-25T13:05:25.112Z,4.57
2023-05-25T13:07:54.850Z,4.13
2023-05-25T13:10:23.274Z,4.78
2023-05-25T13:12:52.075Z,5.22
2023-05-25T13:15:22.106Z,4.40
2023-05-25T13:17:51.631Z,4.53
2023-05-25T13:20:21.320Z,4.63
2023-05-25T13:22:50.643Z,4.40
2023-05-25T13:25:19.457Z,3.95
2023-05-25T13:27:49.542Z,4.47
2023-05-25T13:30:18.006Z,3.90
2023-05-25T13:32:49.508Z,4.75
2023-05-25T13:35:34.005Z,4.95
2023-05-25T13:38:01.992Z,4.30
2023-05-25T13:40:30.061Z,3.78
2023-05-25T13:42:58.055Z,4.32
2023-05-25T13:45:26.529Z,4.10
2023-05-25T13:47:56.121Z,4.28
2023-05-25T13:50:24.123Z,3.70
2023-05-25T13:52:52.200Z,3.85
2023-05-25T13:55:20.156Z,3.65
2023-05-25T13:57:48.039Z,3.70
2023-05-25T14:00:16.481Z,2.97
2023-05-25T14:02:44.407Z,3.60
2023-05-25T14:05:13.718Z,3.63
2023-05-25T14:07:42.070Z,4.10
2023-05-25T14:10:10.897Z,3.60
2023-05-25T14:12:38.842Z,3.70
2023-05-25T14:15:07.886Z,4.60
2023-05-25T14:17:36.037Z,4.63
2023-05-25T14:20:04.649Z,4.60
2023-05-25T14:22:34.161Z,4.28
2023-05-25T14:25:02.039Z,3.92
2023-05-25T14:27:30.044Z,4.07
2023-05-25T14:29:57.988Z,4.20
2023-05-25T14:32:26.035Z,4.68
2023-05-25T14:34:53.992Z,4.40
2023-05-25T14:37:21.914Z,3.85
2023-05-25T14:39:51.213Z,3.78
2023-05-25T14:42:19.162Z,3.88
2023-05-25T14:44:47.136Z,4.10
2023-05-25T14:47:15.064Z,3.50
2023-05-25T14:49:43.705Z,3.33
2023-05-25T14:52:11.695Z,3.72
2023-05-25T14:54:44.622Z,3.80
2023-05-25T14:57:16.204Z,3.40
2023-05-25T14:59:44.260Z,3.40
2023-05-25T15:02:12.189Z,4.00
2023-05-25T15:04:40.128Z,3.75
2023-05-25T15:07:08.194Z,4.07
2023-05-25T15:09:36.721Z,3.70
2023-05-25T15:12:05.031Z,3.83
2023-05-25T15:14:35.224Z,3.50
2023-05-25T15:17:03.086Z,3.72
2023-05-25T15:19:31.025Z,3.28
2023-05-25T15:21:58.924Z,3.67
2023-05-25T15:24:26.925Z,4.13
2023-05-25T15:26:54.795Z,3.63
2023-05-25T15:29:22.705Z,4.85
2023-05-25T15:31:53.771Z,3.15
2023-05-25T15:34:21.762Z,3.20
2023-05-25T15:36:49.699Z,3.63
2023-05-25T15:39:17.754Z,3.58
2023-05-25T15:41:45.717Z,3.22
2023-05-25T15:44:13.657Z,3.58
2023-05-25T15:46:41.975Z,3.55
2023-05-25T15:49:11.913Z,3.30
2023-05-25T15:51:41.797Z,3.30
2023-05-25T15:54:12.823Z,2.72
2023-05-25T15:56:42.196Z,3.40
2023-05-25T15:59:12.125Z,3.13
2023-05-25T16:01:40.145Z,3.50
2023-05-25T16:04:08.210Z,3.47
2023-05-25T16:06:38.496Z,2.97
2023-05-25T16:09:06.817Z,3.15
2023-05-25T16:11:34.792Z,3.25
2023-05-25T16:14:02.881Z,2.60
2023-05-25T16:16:30.822Z,3.10
2023-05-25T16:18:58.943Z,2.90
2023-05-25T16:21:27.021Z,4.00
2023-05-25T16:23:56.310Z,3.17
2023-05-25T16:26:24.161Z,3.00
2023-05-25T16:28:52.041Z,3.15
2023-05-25T16:31:19.992Z,3.60
2023-05-25T16:33:47.909Z,3.05
2023-05-25T16:36:16.728Z,3.30
2023-05-25T16:38:45.811Z,3.15
2023-05-25T16:41:15.114Z,3.17
2023-05-25T16:43:42.998Z,3.25
2023-05-25T16:46:11.519Z,3.10
2023-05-25T16:48:39.488Z,3.15
2023-05-25T16:51:07.431Z,3.33
2023-05-25T16:53:35.332Z,3.00
2023-05-25T16:56:03.203Z,3.35
2023-05-25T16:58:32.534Z,2.88
2023-05-25T17:01:00.575Z,3.10
2023-05-25T17:03:28.645Z,3.38
2023-05-25T17:05:56.661Z,2.90
2023-05-25T17:08:24.666Z,3.30
2023-05-25T17:10:52.554Z,3.17
2023-05-25T17:13:21.054Z,4.32
2023-05-25T17:15:50.593Z,3.72
2023-05-25T17:18:18.663Z,3.63
2023-05-25T17:20:46.722Z,4.05
2023-05-25T17:23:16.713Z,3.38
2023-05-25T17:25:44.965Z,3.13
2023-05-25T17:28:13.036Z,3.60
2023-05-25T17:30:40.984Z,3.90
2023-05-25T17:33:10.416Z,3.80
2023-05-25T17:35:38.450Z,3.85
2023-05-25T17:38:06.366Z,3.25
2023-05-25T17:40:34.309Z,3.63
2023-05-25T17:43:02.256Z,3.28
2023-05-25T17:45:30.191Z,3.47
2023-05-25T17:47:58.781Z,3.25
2023-05-25T17:50:28.758Z,3.78
2023-05-25T17:52:56.651Z,3.50
2023-05-25T17:55:24.578Z,3.00
2023-05-25T17:57:52.595Z,3.47
2023-05-25T18:00:23.068Z,4.57
2023-05-25T18:02:51.911Z,5.22
2023-05-25T18:05:20.089Z,3.28
2023-05-25T18:07:49.442Z,3.75
2023-05-25T18:10:17.443Z,4.90
2023-05-25T18:12:46.233Z,3.65
2023-05-25T18:15:14.130Z,3.65
2023-05-25T18:17:42.390Z,3.72
2023-05-25T18:20:11.596Z,4.10
2023-05-25T18:22:39.632Z,3.42
2023-05-25T18:25:09.800Z,3.28
2023-05-25T18:27:37.725Z,5.85
2023-05-25T18:30:06.487Z,4.53
2023-05-25T18:32:34.456Z,3.67
2023-05-25T18:35:02.403Z,4.38
2023-05-25T18:37:34.188Z,4.10
2023-05-25T18:40:02.211Z,4.05
2023-05-25T18:42:31.598Z,4.35
2023-05-25T18:44:59.694Z,3.72
2023-05-25T18:47:27.774Z,3.55
2023-05-25T18:49:55.821Z,3.38
2023-05-25T18:52:23.764Z,4.20
2023-05-25T18:54:51.678Z,3.70
2023-05-25T18:57:19.787Z,3.22
2023-05-25T18:59:49.038Z,3.30
2023-05-25T19:02:16.975Z,3.10
2023-05-25T19:04:44.974Z,3.35
2023-05-25T19:07:12.945Z,4.07
2023-05-25T19:09:40.841Z,2.83
2023-05-25T19:12:09.384Z,3.33
2023-05-25T19:14:37.306Z,3.10
2023-05-25T19:17:06.721Z,3.03
2023-05-25T19:19:34.656Z,3.47
2023-05-25T19:22:02.661Z,3.13
2023-05-25T19:24:30.636Z,3.10
2023-05-25T19:26:58.535Z,3.35
2023-05-25T19:29:26.450Z,3.30
2023-05-25T19:31:54.442Z,3.40
2023-05-25T19:34:23.742Z,3.40
2023-05-25T19:37:00.038Z,3.35
2023-05-25T19:39:38.361Z,3.03
2023-05-25T19:42:06.565Z,3.25
2023-05-25T19:44:34.448Z,3.42
2023-05-25T19:47:03.446Z,3.47
2023-05-25T19:49:32.696Z,3.47
2023-05-25T19:52:03.442Z,3.15
2023-05-25T19:54:31.442Z,3.40
2023-05-25T19:56:59.335Z,3.22
2023-05-25T19:59:30.197Z,3.53
2023-05-25T20:01:58.403Z,3.28
2023-05-25T20:04:26.438Z,3.50
2023-05-25T20:06:55.951Z,3.67
2023-05-25T20:09:30.238Z,2.85
2023-05-25T20:11:58.921Z,2.88
2023-05-25T20:14:27.086Z,3.63
2023-05-25T20:16:55.957Z,3.50
2023-05-25T20:19:24.162Z,2.97
2023-05-25T20:21:52.276Z,3.63
2023-05-25T20:24:22.054Z,3.90
2023-05-25T20:26:50.210Z,3.45
2023-05-25T20:29:18.085Z,3.70
2023-05-25T20:31:45.967Z,3.85
2023-05-25T20:34:13.891Z,3.83
2023-05-25T20:36:41.760Z,3.45
2023-05-25T20:39:09.729Z,3.72
2023-05-25T20:41:39.048Z,3.40
2023-05-25T20:44:07.470Z,3.47
2023-05-25T20:46:36.108Z,4.28
2023-05-25T20:49:04.237Z,3.65
2023-05-25T20:51:32.679Z,3.50
2023-05-25T20:54:00.852Z,3.47
2023-05-25T20:56:28.788Z,3.90
2023-05-25T20:58:58.605Z,3.97
2023-05-25T21:01:26.598Z,3.60
2023-05-25T21:03:55.005Z,3.50
2023-05-25T21:06:23.297Z,3.30
2023-05-25T21:08:52.177Z,3.58
2023-05-25T21:11:20.247Z,3.58
2023-05-25T21:13:48.412Z,3.42
2023-05-25T21:16:17.862Z,4.10
2023-05-25T21:18:45.818Z,3.50
2023-05-25T21:21:15.759Z,3.45
2023-05-25T21:23:43.613Z,3.25
2023-05-25T21:26:11.535Z,3.45
2023-05-25T21:28:39.441Z,3.40
2023-05-25T21:31:07.730Z,3.10
2023-05-25T21:33:37.689Z,3.90
2023-05-25T21:36:05.666Z,4.03
2023-05-25T21:38:33.598Z,3.47
2023-05-25T21:41:01.454Z,3.67
2023-05-25T21:43:29.409Z,3.22
2023-05-25T21:45:57.392Z,3.72
2023-05-25T21:48:25.542Z,3.30
2023-05-25T21:50:54.999Z,3.80
2023-05-25T21:53:23.001Z,3.85
2023-05-25T21:55:52.757Z,3.95
2023-05-25T21:58:20.612Z,3.83
2023-05-25T22:00:48.681Z,3.85
2023-05-25T22:03:16.813Z,3.88
2023-05-25T22:05:44.996Z,3.90
2023-05-25T22:08:14.532Z,3.78
2023-05-25T22:10:42.397Z,3.40
2023-05-25T22:13:10.309Z,3.70
2023-05-25T22:15:38.219Z,3.78
2023-05-25T22:18:06.830Z,3.53
2023-05-25T22:20:38.436Z,3.72
2023-05-25T22:23:06.589Z,4.10
2023-05-25T22:25:35.905Z,3.33
2023-05-25T22:28:03.846Z,3.80
2023-05-25T22:30:31.832Z,3.60
2023-05-25T22:33:01.241Z,3.90
2023-05-25T22:35:29.190Z,4.07
2023-05-25T22:37:57.122Z,4.07
2023-05-25T22:40:25.043Z,3.70
2023-05-25T22:42:54.362Z,3.78
2023-05-25T22:45:22.482Z,4.40
2023-05-25T22:47:50.492Z,4.10
2023-05-25T22:50:18.556Z,4.03
2023-05-25T22:52:46.470Z,3.75
2023-05-25T22:55:14.379Z,3.75
2023-05-25T22:57:42.279Z,4.40
2023-05-25T23:00:12.622Z,3.92
2023-05-25T23:02:40.556Z,4.10
2023-05-25T23:05:09.806Z,4.45
2023-05-25T23:07:37.840Z,3.80
2023-05-25T23:10:07.058Z,4.00
2023-05-25T23:12:34.978Z,3.53
2023-05-25T23:15:02.898Z,3.45
2023-05-25T23:17:32.624Z,5.03
2023-05-25T23:20:01.960Z,3.38
2023-05-25T23:22:29.899Z,3.97
2023-05-25T23:24:57.775Z,3.70
2023-05-25T23:27:25.856Z,4.00
2023-05-25T23:29:53.935Z,4.15
2023-05-25T23:32:22.133Z,3.33
2023-05-25T23:34:51.477Z,4.05
2023-05-25T23:37:19.325Z,8.05
2023-05-25T23:39:47.223Z,4.32
2023-05-25T23:42:15.561Z,4.22
2023-05-25T23:44:43.463Z,4.63
2023-05-25T23:47:11.292Z,3.60
2023-05-25T23:49:39.148Z,4.07
2023-05-25T23:52:08.400Z,3.65
2023-05-25T23:54:36.264Z,4.13
2023-05-25T23:57:04.284Z,4.82
2023-05-25T23:59:32.269Z,3.75
